createdAt,value
2019-05-16T00:00:49.587Z,101401.44
2019-05-16T00:03:18.813Z,101395.71
2019-05-16T00:05:54.050Z,101397.95
2019-05-16T00:08:18.548Z,101396.72
2019-05-16T00:10:48.704Z,101393.91
2019-05-16T00:13:18.695Z,101391.30
2019-05-16T00:15:48.173Z,101391.84
2019-05-16T00:18:17.970Z,101382.83
2019-05-16T00:20:49.108Z,101382.48
2019-05-16T00:23:18.322Z,101382.00
2019-05-16T00:25:47.825Z,101378.06
2019-05-16T00:28:18.009Z,101380.60
2019-05-16T00:30:48.720Z,101377.50
2019-05-16T00:33:18.485Z,101381.80
2019-05-16T00:35:48.216Z,101376.82
2019-05-16T00:38:18.683Z,101369.68
2019-05-16T00:40:48.692Z,101367.44
2019-05-16T00:43:18.488Z,101363.77
2019-05-16T00:45:48.658Z,101360.70
2019-05-16T00:48:18.533Z,101358.95
2019-05-16T00:50:48.139Z,101358.77
2019-05-16T00:53:18.184Z,101356.10
2019-05-16T00:55:48.023Z,101349.97
2019-05-16T00:58:19.170Z,101352.94
2019-05-16T01:00:50.411Z,101350.27
2019-05-16T01:03:20.566Z,101344.95
2019-05-16T01:05:50.116Z,101348.67
2019-05-16T01:08:19.261Z,101350.17
2019-05-16T01:10:51.490Z,101346.70
2019-05-16T01:13:19.734Z,101345.72
2019-05-16T01:15:48.912Z,101344.31
2019-05-16T01:18:18.754Z,101338.77
2019-05-16T01:20:48.496Z,101338.72
2019-05-16T01:23:18.250Z,101337.03
2019-05-16T01:25:48.290Z,101337.03
2019-05-16T01:28:18.387Z,101330.11
2019-05-16T01:30:48.818Z,101330.71
2019-05-16T01:33:19.141Z,101324.11
2019-05-16T01:35:49.179Z,101323.23
2019-05-16T01:38:18.316Z,101320.12
2019-05-16T01:40:49.102Z,101317.50
2019-05-16T01:43:18.430Z,101317.66
2019-05-16T01:45:48.757Z,101317.69
2019-05-16T01:48:19.215Z,101314.41
2019-05-16T01:50:48.619Z,101317.78
2019-05-16T01:53:18.053Z,101312.20
2019-05-16T01:55:48.817Z,101312.66
2019-05-16T01:58:19.784Z,101307.95
2019-05-16T02:01:03.207Z,101310.12
2019-05-16T02:03:20.869Z,101302.55
2019-05-16T02:05:49.922Z,101306.68
2019-05-16T02:08:18.938Z,101302.91
2019-05-16T02:10:48.129Z,101301.05
2019-05-16T02:13:18.137Z,101306.02
2019-05-16T02:15:48.863Z,101306.15
2019-05-16T02:18:19.246Z,101296.33
2019-05-16T02:20:48.364Z,101292.37
2019-05-16T02:23:18.872Z,101298.52
2019-05-16T02:25:49.241Z,101289.00
2019-05-16T02:28:21.064Z,101287.92
2019-05-16T02:30:51.405Z,101283.55
2019-05-16T02:33:21.429Z,101284.91
2019-05-16T02:35:55.359Z,101277.13
2019-05-16T02:38:21.818Z,101278.48
2019-05-16T02:40:54.845Z,101280.18
2019-05-16T02:43:26.291Z,101277.75
2019-05-16T02:45:52.372Z,101285.45
2019-05-16T02:48:21.831Z,101278.06
2019-05-16T02:50:51.715Z,101276.66
2019-05-16T02:53:22.594Z,101269.44
2019-05-16T02:55:52.227Z,101271.80
2019-05-16T02:58:23.452Z,101274.20
2019-05-16T03:00:52.381Z,101276.05
2019-05-16T03:03:21.806Z,101273.05
2019-05-16T03:05:52.037Z,101268.06
2019-05-16T03:08:22.957Z,101266.50
2019-05-16T03:10:53.115Z,101264.50
2019-05-16T03:13:23.148Z,101262.40
2019-05-16T03:15:52.211Z,101257.00
2019-05-16T03:18:24.066Z,101257.31
2019-05-16T03:20:55.095Z,101258.59
2019-05-16T03:23:24.313Z,101255.14
2019-05-16T03:25:53.324Z,101249.55
2019-05-16T03:28:22.573Z,101243.13
2019-05-16T03:30:54.759Z,101237.56
2019-05-16T03:33:30.845Z,101241.08
2019-05-16T03:35:55.457Z,101238.88
2019-05-16T03:38:24.460Z,101236.27
2019-05-16T03:40:53.566Z,101238.56
2019-05-16T03:43:22.617Z,101240.16
2019-05-16T03:45:52.335Z,101237.30
2019-05-16T03:48:21.754Z,101240.37
2019-05-16T03:50:51.169Z,101237.98
2019-05-16T03:53:21.188Z,101241.56
2019-05-16T03:55:51.803Z,101238.34
2019-05-16T03:58:22.566Z,101235.36
2019-05-16T04:00:55.047Z,101230.14
2019-05-16T04:03:28.555Z,101233.42
2019-05-16T04:05:55.619Z,101234.06
2019-05-16T04:08:25.685Z,101229.84
2019-05-16T04:10:55.302Z,101223.47
2019-05-16T04:13:24.709Z,101228.83
2019-05-16T04:15:53.795Z,101220.34
2019-05-16T04:18:23.127Z,101223.20
2019-05-16T04:20:52.943Z,101222.72
2019-05-16T04:23:22.166Z,101224.96
2019-05-16T04:25:53.077Z,101227.67
2019-05-16T04:28:23.479Z,101226.55
2019-05-16T04:30:52.992Z,101218.75
2019-05-16T04:33:22.695Z,101218.89
2019-05-16T04:35:53.062Z,101225.69
2019-05-16T04:38:34.895Z,101225.69
2019-05-16T04:40:53.575Z,101219.32
2019-05-16T04:43:22.909Z,101215.57
2019-05-16T04:45:52.994Z,101215.57
2019-05-16T04:48:23.118Z,101213.01
2019-05-16T04:50:52.764Z,101215.16
2019-05-16T04:53:22.365Z,101204.67
2019-05-16T04:55:52.341Z,101204.67
2019-05-16T04:58:23.221Z,101212.09
2019-05-16T05:00:53.336Z,101205.81
2019-05-16T05:03:23.026Z,101206.17
2019-05-16T05:05:52.222Z,101206.17
2019-05-16T05:08:22.485Z,101209.38
2019-05-16T05:10:52.268Z,101201.67
2019-05-16T05:13:22.436Z,101202.73
2019-05-16T05:15:52.362Z,101200.36
2019-05-16T05:18:25.718Z,101200.91
2019-05-16T05:20:56.003Z,101198.72
2019-05-16T05:23:24.978Z,101196.42
2019-05-16T05:25:53.999Z,101191.86
2019-05-16T05:28:24.687Z,101196.97
2019-05-16T05:30:53.717Z,101197.29
2019-05-16T05:33:22.737Z,101194.83
2019-05-16T05:35:51.786Z,101186.66
2019-05-16T05:38:21.687Z,101189.61
2019-05-16T05:40:51.663Z,101188.19
2019-05-16T05:43:21.775Z,101187.48
2019-05-16T05:45:51.774Z,101192.66
2019-05-16T05:48:21.948Z,101185.19
2019-05-16T05:50:51.659Z,101188.90
2019-05-16T05:53:21.186Z,101182.83
2019-05-16T05:55:51.790Z,101182.00
2019-05-16T05:58:21.827Z,101186.66
2019-05-16T06:00:52.112Z,101183.73
2019-05-16T06:03:22.721Z,101186.36
2019-05-16T06:05:52.430Z,101182.28
2019-05-16T06:08:21.573Z,101189.16
2019-05-16T06:10:50.784Z,101182.50
2019-05-16T06:13:21.096Z,101180.20
2019-05-16T06:15:51.279Z,101185.02
2019-05-16T06:18:20.740Z,101185.11
2019-05-16T06:20:51.279Z,101186.30
2019-05-16T06:23:21.135Z,101179.63
2019-05-16T06:25:51.043Z,101174.64
2019-05-16T06:28:21.216Z,101174.30
2019-05-16T06:30:51.531Z,101168.54
2019-05-16T06:33:21.378Z,101177.13
2019-05-16T06:35:51.436Z,101171.12
2019-05-16T06:38:21.505Z,101172.14
2019-05-16T06:40:52.717Z,101166.66
2019-05-16T06:43:21.552Z,101169.73
2019-05-16T06:45:51.407Z,101169.73
2019-05-16T06:48:21.518Z,101164.66
2019-05-16T06:50:52.098Z,101162.34
2019-05-16T06:53:21.506Z,101156.91
2019-05-16T06:55:50.602Z,101154.73
2019-05-16T06:58:22.163Z,101153.37
2019-05-16T07:00:52.350Z,101153.25
2019-05-16T07:03:21.542Z,101151.34
2019-05-16T07:05:51.222Z,101151.97
2019-05-16T07:08:21.222Z,101155.36
2019-05-16T07:10:51.276Z,101152.70
2019-05-16T07:13:20.396Z,101143.39
2019-05-16T07:15:50.384Z,101138.36
2019-05-16T07:18:20.866Z,101135.94
2019-05-16T07:20:51.369Z,101130.47
2019-05-16T07:23:21.368Z,101129.21
2019-05-16T07:25:51.148Z,101119.08
2019-05-16T07:28:21.107Z,101122.30
2019-05-16T07:30:50.924Z,101120.33
2019-05-16T07:33:21.221Z,101117.27
2019-05-16T07:35:51.587Z,101125.50
2019-05-16T07:38:20.984Z,101119.84
2019-05-16T07:40:51.268Z,101109.19
2019-05-16T07:43:21.083Z,101104.36
2019-05-16T07:45:51.379Z,101110.06
2019-05-16T07:48:21.968Z,101104.69
2019-05-16T07:50:52.417Z,101105.00
2019-05-16T07:53:21.763Z,101104.56
2019-05-16T07:55:51.244Z,101103.23
2019-05-16T07:58:22.122Z,101108.98
2019-05-16T08:01:01.907Z,101096.91
2019-05-16T08:03:22.162Z,101094.63
2019-05-16T08:05:51.784Z,101094.10
2019-05-16T08:08:24.379Z,101094.01
2019-05-16T08:10:52.456Z,101091.30
2019-05-16T08:13:21.748Z,101087.69
2019-05-16T08:15:51.213Z,101093.68
2019-05-16T08:18:21.403Z,101085.41
2019-05-16T08:20:52.602Z,101082.57
2019-05-16T08:23:22.922Z,101083.89
2019-05-16T08:25:52.331Z,101081.03
2019-05-16T08:28:22.048Z,101076.89
2019-05-16T08:30:52.853Z,101072.91
2019-05-16T08:33:22.341Z,101072.73
2019-05-16T08:35:51.933Z,101059.52
2019-05-16T08:38:21.860Z,101060.67
2019-05-16T08:41:08.100Z,101055.02
2019-05-16T08:43:22.331Z,101048.16
2019-05-16T08:45:51.852Z,101040.24
2019-05-16T08:48:23.453Z,101051.23
2019-05-16T08:50:54.619Z,101044.81
2019-05-16T08:53:23.696Z,101040.06
2019-05-16T08:55:52.677Z,101037.69
2019-05-16T08:58:22.901Z,101039.94
2019-05-16T09:00:56.273Z,101043.68
2019-05-16T09:03:22.978Z,101038.97
2019-05-16T09:08:22.814Z,101039.16
2019-05-16T09:10:30.922Z,101038.99
2019-05-16T09:11:01.722Z,101027.30
2019-05-16T09:13:22.874Z,101030.53
2019-05-16T09:15:51.901Z,101019.82
2019-05-16T09:18:20.937Z,101021.02
2019-05-16T09:20:50.672Z,101017.85
2019-05-16T09:23:19.933Z,101017.03
2019-05-16T09:25:49.351Z,101007.30
2019-05-16T09:28:18.676Z,101015.33
2019-05-16T09:30:47.719Z,101010.50
2019-05-16T09:33:17.770Z,101014.95
2019-05-16T09:35:48.015Z,101014.88
2019-05-16T09:38:23.238Z,101012.54
2019-05-16T09:40:48.585Z,101005.09
2019-05-16T09:43:18.365Z,101011.47
2019-05-16T09:45:47.644Z,100999.34
2019-05-16T09:48:18.818Z,100999.17
2019-05-16T09:50:48.627Z,100997.64
2019-05-16T09:53:17.748Z,101000.47
2019-05-16T09:55:47.382Z,100999.54
2019-05-16T09:58:18.367Z,100995.16
2019-05-16T10:00:48.052Z,100994.80
2019-05-16T10:03:22.341Z,100989.66
2019-05-16T10:05:48.674Z,100986.06
2019-05-16T10:08:17.970Z,100979.91
2019-05-16T10:10:47.162Z,100979.81
2019-05-16T10:13:18.360Z,100969.63
2019-05-16T10:15:47.534Z,100973.15
2019-05-16T10:18:17.077Z,100967.22
2019-05-16T10:20:46.257Z,100930.80
2019-05-16T10:23:17.965Z,100965.72
2019-05-16T10:25:47.992Z,100962.84
2019-05-16T10:28:19.787Z,100963.83
2019-05-16T10:30:50.060Z,100960.94
2019-05-16T10:33:19.412Z,100954.36
2019-05-16T10:35:48.831Z,100949.30
2019-05-16T10:38:17.955Z,100942.30
2019-05-16T10:40:47.695Z,100939.31
2019-05-16T10:43:17.393Z,100935.67
2019-05-16T10:45:46.729Z,100933.48
2019-05-16T10:48:17.670Z,100923.70
2019-05-16T10:50:47.743Z,100918.95
2019-05-16T10:53:43.072Z,100913.94
2019-05-16T10:55:48.063Z,100913.94
2019-05-16T10:58:35.070Z,100914.69
2019-05-16T11:01:13.934Z,100910.09
2019-05-16T11:03:18.693Z,100905.70
2019-05-16T11:06:01.677Z,100898.64
2019-05-16T11:08:19.095Z,100903.11
2019-05-16T11:10:48.233Z,100890.99
2019-05-16T11:13:20.249Z,100892.06
2019-05-16T11:15:48.485Z,100890.48
2019-05-16T11:18:17.909Z,100894.09
2019-05-16T11:20:49.118Z,100880.60
2019-05-16T11:23:23.371Z,100883.29
2019-05-16T11:25:48.607Z,100880.30
2019-05-16T11:28:18.048Z,100863.69
2019-05-16T11:30:49.659Z,100870.11
2019-05-16T11:33:18.566Z,100870.95
2019-05-16T11:35:47.887Z,100866.70
2019-05-16T11:38:17.887Z,100869.44
2019-05-16T11:40:47.615Z,100865.08
2019-05-16T11:43:21.431Z,100860.41
2019-05-16T11:45:48.285Z,100858.70
2019-05-16T11:48:17.376Z,100844.67
2019-05-16T11:50:48.052Z,100840.27
2019-05-16T11:53:17.729Z,100838.14
2019-05-16T11:55:54.549Z,100839.02
2019-05-16T11:58:18.340Z,100831.59
2019-05-16T12:00:48.314Z,100825.12
2019-05-16T12:03:17.671Z,100817.09
2019-05-16T12:05:47.984Z,100807.50
2019-05-16T12:08:17.819Z,100806.83
2019-05-16T12:10:47.289Z,100806.93
2019-05-16T12:13:27.660Z,100807.63
2019-05-16T12:15:47.636Z,100802.31
2019-05-16T12:18:17.279Z,100798.16
2019-05-16T12:20:46.734Z,100786.97
2019-05-16T12:23:17.130Z,100785.89
2019-05-16T12:25:47.619Z,100778.80
2019-05-16T12:28:17.311Z,100778.28
2019-05-16T12:30:47.182Z,100773.47
2019-05-16T12:33:18.848Z,100762.45
2019-05-16T12:35:47.743Z,100771.75
2019-05-16T12:38:17.424Z,100765.47
2019-05-16T12:40:47.887Z,100758.20
2019-05-16T12:43:18.132Z,100753.23
2019-05-16T12:45:47.592Z,100749.20
2019-05-16T12:48:20.220Z,100741.68
2019-05-16T12:50:48.367Z,100734.45
2019-05-16T12:53:17.857Z,100726.82
2019-05-16T12:55:47.539Z,100726.13
2019-05-16T12:58:25.057Z,100720.75
2019-05-16T13:00:54.161Z,100703.59
2019-05-16T13:03:19.578Z,100707.30
2019-05-16T13:05:48.608Z,100707.13
2019-05-16T13:08:17.965Z,100707.09
2019-05-16T13:10:47.354Z,100698.50
2019-05-16T13:13:17.770Z,100690.77
2019-05-16T13:15:47.491Z,100686.62
2019-05-16T13:18:17.190Z,100676.23
2019-05-16T13:20:46.965Z,100669.67
2019-05-16T13:23:18.349Z,100674.11
2019-05-16T13:25:48.045Z,100673.20
2019-05-16T13:28:17.577Z,100673.46
2019-05-16T13:30:47.215Z,100665.19
2019-05-16T13:33:17.793Z,100662.01
2019-05-16T13:35:47.415Z,100658.19
2019-05-16T13:38:17.530Z,100650.47
2019-05-16T13:40:47.071Z,100654.25
2019-05-16T13:43:17.513Z,100649.05
2019-05-16T13:45:47.418Z,100645.72
2019-05-16T13:48:17.308Z,100651.03
2019-05-16T13:50:47.332Z,100644.54
2019-05-16T13:53:16.715Z,100647.16
2019-05-16T13:55:45.788Z,100635.88
2019-05-16T13:58:17.650Z,100628.71
2019-05-16T14:00:48.092Z,100631.90
2019-05-16T14:03:17.882Z,100637.79
2019-05-16T14:05:47.776Z,100637.63
2019-05-16T14:08:17.336Z,100631.61
2019-05-16T14:10:48.472Z,100627.59
2019-05-16T14:13:17.135Z,100623.83
2019-05-16T14:15:47.254Z,100618.75
2019-05-16T14:18:17.628Z,100612.27
2019-05-16T14:20:47.012Z,100568.27
2019-05-16T14:23:17.582Z,100608.81
2019-05-16T14:25:48.057Z,100609.55
2019-05-16T14:28:17.852Z,100609.20
2019-05-16T14:30:47.089Z,100606.50
2019-05-16T14:33:17.178Z,100605.71
2019-05-16T14:35:47.393Z,100607.45
2019-05-16T14:38:17.591Z,100611.55
2019-05-16T14:40:50.236Z,100610.53
2019-05-16T14:43:17.826Z,100609.41
2019-05-16T14:45:46.966Z,100609.00
2019-05-16T14:48:18.425Z,100613.09
2019-05-16T14:50:47.252Z,100604.41
2019-05-16T14:53:18.002Z,100609.95
2019-05-16T14:55:47.745Z,100613.81
2019-05-16T14:58:16.982Z,100608.86
2019-05-16T15:00:49.164Z,100609.05
2019-05-16T15:03:18.054Z,100621.56
2019-05-16T15:05:48.116Z,100625.09
2019-05-16T15:08:18.157Z,100628.80
2019-05-16T15:10:47.630Z,100630.66
2019-05-16T15:13:17.524Z,100631.17
2019-05-16T15:15:46.989Z,100636.19
2019-05-16T15:18:17.670Z,100638.37
2019-05-16T15:20:47.152Z,100632.03
2019-05-16T15:23:17.508Z,100627.03
2019-05-16T15:25:47.042Z,100633.37
2019-05-16T15:28:17.219Z,100629.87
2019-05-16T15:30:47.030Z,100627.03
2019-05-16T15:33:19.655Z,100624.49
2019-05-16T15:35:47.356Z,100625.33
2019-05-16T15:38:16.771Z,100618.81
2019-05-16T15:40:48.213Z,100612.31
2019-05-16T15:43:18.224Z,100614.00
2019-05-16T15:45:52.182Z,100606.34
2019-05-16T15:48:18.305Z,100609.31
2019-05-16T15:50:47.473Z,100613.34
2019-05-16T15:53:17.634Z,100611.47
2019-05-16T15:55:47.541Z,100609.48
2019-05-16T15:58:18.011Z,100606.48
2019-05-16T16:00:49.687Z,100604.47
2019-05-16T16:03:19.369Z,100604.64
2019-05-16T16:05:48.381Z,100605.59
2019-05-16T16:08:18.366Z,100605.24
2019-05-16T16:10:48.678Z,100613.23
2019-05-16T16:13:19.723Z,100611.44
2019-05-16T16:15:53.939Z,100613.25
2019-05-16T16:18:21.855Z,100607.58
2019-05-16T16:20:51.291Z,100611.20
2019-05-16T16:23:20.363Z,100613.64
2019-05-16T16:25:51.097Z,100608.09
2019-05-16T16:28:20.289Z,100601.74
2019-05-16T16:30:49.407Z,100609.48
2019-05-16T16:33:25.338Z,100610.00
2019-05-16T16:35:49.194Z,100603.67
2019-05-16T16:38:18.297Z,100600.16
2019-05-16T16:40:48.129Z,100604.02
2019-05-16T16:43:17.299Z,100602.70
2019-05-16T16:45:47.959Z,100598.70
2019-05-16T16:48:17.690Z,100601.69
2019-05-16T16:50:46.832Z,100595.55
2019-05-16T16:53:17.644Z,100597.71
2019-05-16T16:55:47.567Z,100591.38
2019-05-16T16:58:17.690Z,100587.20
2019-05-16T17:00:47.929Z,100590.66
2019-05-16T17:03:17.483Z,100585.48
2019-05-16T17:05:46.656Z,100593.88
2019-05-16T17:08:16.856Z,100593.14
2019-05-16T17:10:47.636Z,100592.88
2019-05-16T17:13:17.110Z,100592.55
2019-05-16T17:15:47.315Z,100594.17
2019-05-16T17:18:17.497Z,100589.66
2019-05-16T17:20:47.736Z,100587.95
2019-05-16T17:23:17.462Z,100580.63
2019-05-16T17:25:47.314Z,100579.82
2019-05-16T17:28:17.389Z,100585.14
2019-05-16T17:30:47.295Z,100576.94
2019-05-16T17:33:18.239Z,100578.55
2019-05-16T17:35:49.031Z,100579.06
2019-05-16T17:38:18.840Z,100574.27
2019-05-16T17:40:48.366Z,100567.62
2019-05-16T17:43:17.890Z,100563.53
2019-05-16T17:45:47.243Z,100563.25
2019-05-16T17:48:17.543Z,100559.55
2019-05-16T17:50:47.769Z,100556.30
2019-05-16T17:53:17.543Z,100557.97
2019-05-16T17:55:47.394Z,100560.40
2019-05-16T17:58:17.037Z,100559.30
2019-05-16T18:00:47.153Z,100513.37
2019-05-16T18:03:17.538Z,100552.52
2019-05-16T18:05:47.689Z,100551.19
2019-05-16T18:08:17.007Z,100546.19
2019-05-16T18:10:47.119Z,100540.63
2019-05-16T18:13:17.257Z,100545.30
2019-05-16T18:15:47.289Z,100551.19
2019-05-16T18:18:17.736Z,100539.30
2019-05-16T18:20:55.843Z,100540.78
2019-05-16T18:23:17.981Z,100541.77
2019-05-16T18:25:47.227Z,100545.86
2019-05-16T18:28:17.495Z,100538.02
2019-05-16T18:30:47.366Z,100542.05
2019-05-16T18:33:16.806Z,100532.52
2019-05-16T18:35:47.045Z,100531.89
2019-05-16T18:38:16.189Z,100534.51
2019-05-16T18:40:47.353Z,100532.98
2019-05-16T18:43:16.607Z,100516.64
2019-05-16T18:45:47.163Z,100520.84
2019-05-16T18:48:16.460Z,100514.47
2019-05-16T18:50:47.753Z,100519.50
2019-05-16T18:53:17.819Z,100523.16
2019-05-16T18:55:47.449Z,100511.34
2019-05-16T18:58:17.933Z,100513.70
2019-05-16T19:00:47.776Z,100508.96
2019-05-16T19:03:16.874Z,100508.28
2019-05-16T19:05:46.342Z,100506.30
2019-05-16T19:08:16.320Z,100502.98
2019-05-16T19:10:47.355Z,100505.45
2019-05-16T19:13:16.960Z,100502.30
2019-05-16T19:15:46.576Z,100500.22
2019-05-16T19:18:17.152Z,100505.11
2019-05-16T19:20:48.851Z,100504.45
2019-05-16T19:23:17.620Z,100494.66
2019-05-16T19:25:47.405Z,100497.00
2019-05-16T19:28:16.946Z,100498.98
2019-05-16T19:30:46.618Z,100310.94
2019-05-16T19:33:17.421Z,100498.13
2019-05-16T19:35:48.911Z,100496.42
2019-05-16T19:38:17.454Z,100499.41
2019-05-16T19:40:47.010Z,100497.68
2019-05-16T19:43:17.462Z,100495.42
2019-05-16T19:45:47.031Z,100492.36
2019-05-16T19:48:17.411Z,100505.66
2019-05-16T19:50:46.892Z,100503.34
2019-05-16T19:53:16.558Z,100504.81
2019-05-16T19:55:47.042Z,100506.42
2019-05-16T19:58:16.544Z,100509.36
2019-05-16T20:00:46.535Z,100509.25
2019-05-16T20:03:16.660Z,100511.30
2019-05-16T20:05:47.601Z,100508.14
2019-05-16T20:08:17.602Z,100510.53
2019-05-16T20:10:47.720Z,100496.62
2019-05-16T20:13:17.304Z,100515.09
2019-05-16T20:15:47.160Z,100523.45
2019-05-16T20:18:18.518Z,100514.14
2019-05-16T20:20:47.322Z,100511.64
2019-05-16T20:23:18.471Z,100512.02
2019-05-16T20:25:47.146Z,100511.48
2019-05-16T20:28:18.471Z,100501.34
2019-05-16T20:30:47.546Z,100513.83
2019-05-16T20:33:17.976Z,100508.63
2019-05-16T20:35:47.573Z,100512.41
2019-05-16T20:38:17.318Z,100508.77
2019-05-16T20:40:47.046Z,100507.16
2019-05-16T20:43:16.816Z,100507.05
2019-05-16T20:45:47.593Z,100513.08
2019-05-16T20:48:18.590Z,100515.81
2019-05-16T20:50:49.264Z,100513.16
2019-05-16T20:53:18.555Z,100512.18
2019-05-16T20:55:49.539Z,100506.13
2019-05-16T20:58:18.534Z,100505.27
2019-05-16T21:00:49.754Z,100500.03
2019-05-16T21:03:18.309Z,100496.47
2019-05-16T21:05:48.229Z,100496.27
2019-05-16T21:08:17.400Z,100493.75
2019-05-16T21:10:46.546Z,100493.48
2019-05-16T21:13:17.298Z,100489.67
2019-05-16T21:15:47.683Z,100494.84
2019-05-16T21:18:16.936Z,100487.25
2019-05-16T21:20:47.019Z,100493.74
2019-05-16T21:23:19.390Z,100485.77
2019-05-16T21:25:47.410Z,100485.80
2019-05-16T21:28:19.482Z,100488.00
2019-05-16T21:30:47.495Z,100480.96
2019-05-16T21:33:18.718Z,100483.61
2019-05-16T21:35:47.496Z,100479.09
2019-05-16T21:38:16.769Z,100472.83
2019-05-16T21:40:46.283Z,100474.54
2019-05-16T21:43:16.803Z,100466.52
2019-05-16T21:45:47.419Z,100462.98
2019-05-16T21:48:19.298Z,100465.89
2019-05-16T21:50:47.431Z,100463.72
2019-05-16T21:53:17.741Z,100459.34
2019-05-16T21:55:47.321Z,100456.25
2019-05-16T21:58:16.578Z,100451.14
2019-05-16T22:00:48.684Z,100445.47
2019-05-16T22:03:18.086Z,100446.09
2019-05-16T22:05:47.632Z,100443.60
2019-05-16T22:08:16.970Z,100441.70
2019-05-16T22:10:46.892Z,100437.11
2019-05-16T22:13:16.160Z,100438.67
2019-05-16T22:15:46.370Z,100438.38
2019-05-16T22:18:16.576Z,100434.26
2019-05-16T22:20:48.898Z,100434.45
2019-05-16T22:23:17.461Z,100434.05
2019-05-16T22:25:49.165Z,100433.71
2019-05-16T22:28:17.592Z,100435.00
2019-05-16T22:30:46.813Z,100430.44
2019-05-16T22:33:17.885Z,100434.06
2019-05-16T22:35:49.488Z,100436.58
2019-05-16T22:38:17.624Z,100426.05
2019-05-16T22:40:46.687Z,100423.58
2019-05-16T22:43:17.371Z,100416.64
2019-05-16T22:45:46.851Z,100417.05
2019-05-16T22:48:17.244Z,100416.19
2019-05-16T22:50:46.823Z,100414.17
2019-05-16T22:53:17.180Z,100412.30
2019-05-16T22:55:47.817Z,100407.50
2019-05-16T22:58:17.250Z,100405.13
2019-05-16T23:00:47.211Z,100407.45
2019-05-16T23:03:17.372Z,100403.75
2019-05-16T23:05:47.656Z,100403.16
2019-05-16T23:08:16.713Z,100401.67
2019-05-16T23:10:45.796Z,100399.58
2019-05-16T23:13:16.839Z,100397.91
2019-05-16T23:15:45.672Z,100393.18
2019-05-16T23:18:17.102Z,100394.45
2019-05-16T23:20:47.355Z,100388.73
2019-05-16T23:23:17.375Z,100385.97
2019-05-16T23:25:46.901Z,100387.84
2019-05-16T23:28:16.759Z,100383.40
2019-05-16T23:30:47.100Z,100382.47
2019-05-16T23:33:16.438Z,100382.29
2019-05-16T23:35:46.883Z,100384.64
2019-05-16T23:38:19.864Z,100379.22
2019-05-16T23:40:47.084Z,100379.77
2019-05-16T23:43:16.160Z,100379.48
2019-05-16T23:45:46.942Z,100370.00
2019-05-16T23:48:16.639Z,100370.56
2019-05-16T23:50:47.487Z,100369.02
2019-05-16T23:53:16.553Z,100361.03
2019-05-16T23:55:47.152Z,100360.05
2019-05-16T23:58:16.719Z,100359.24
